Time;durP1;ratioP1;P1;durP2;ratioP2;P2;SDS_P1;SDS_P2;PMS_P1;PMS_P2;Temp;Humidity;BMP_temperature;BMP_pressure;BME280_temperature;BME280_humidity;BME280_pressure;Samples;Min_cycle;Max_cycle;Signal;HPM_P1;HPM_P2
2023/12/11 00:00:21;;;;;;;29.52;5.15;;;;;;;8.26;100.00;99846.53;6102518;23;20019;-78
2023/12/11 00:02:48;;;;;;;24.45;4.30;;;;;;;8.27;100.00;99848.75;6102361;23;20018;-78
2023/12/11 00:05:14;;;;;;;34.78;4.90;;;;;;;8.25;100.00;99850.38;6102245;23;20109;-78
2023/12/11 00:07:41;;;;;;;34.13;5.40;;;;;;;8.24;100.00;99846.97;6102320;23;20649;-78
2023/12/11 00:10:08;;;;;;;28.08;4.55;;;;;;;8.26;100.00;99843.88;6102662;23;20095;-77
2023/12/11 00:12:36;;;;;;;35.65;5.38;;;;;;;8.27;100.00;99842.69;6101955;23;20015;-77
2023/12/11 00:15:03;;;;;;;30.58;4.25;;;;;;;8.27;100.00;99842.69;6102558;23;20015;-77
2023/12/11 00:17:30;;;;;;;28.75;4.53;;;;;;;8.26;100.00;99841.22;6101806;23;20023;-77
2023/12/11 00:19:57;;;;;;;29.60;4.95;;;;;;;8.26;100.00;99847.28;6102070;23;20029;-77
2023/12/11 00:22:24;;;;;;;36.38;4.40;;;;;;;8.29;100.00;99848.28;6102080;23;20070;-77
2023/12/11 00:24:51;;;;;;;39.60;4.97;;;;;;;8.30;100.00;99849.78;6102651;23;20015;-77
2023/12/11 00:27:18;;;;;;;34.60;5.68;;;;;;;8.33;100.00;99854.94;6102359;23;20537;-77
2023/12/11 00:29:45;;;;;;;32.22;4.45;;;;;;;8.38;100.00;99850.97;6102478;23;20070;-77
2023/12/11 00:32:12;;;;;;;34.10;5.30;;;;;;;8.42;100.00;99848.13;6101734;23;20023;-77
2023/12/11 00:34:38;;;;;;;31.98;5.43;;;;;;;8.42;100.00;99837.53;6102370;23;20015;-77
2023/12/11 00:37:05;;;;;;;34.95;4.68;;;;;;;8.41;100.00;99841.34;6102624;23;20086;-77
2023/12/11 00:39:32;;;;;;;29.90;5.03;;;;;;;8.39;100.00;99838.44;6102992;23;20022;-77
2023/12/11 00:41:59;;;;;;;31.70;4.93;;;;;;;8.38;100.00;99829.75;6103601;23;20022;-77
2023/12/11 00:44:25;;;;;;;27.90;4.95;;;;;;;8.37;100.00;99838.16;6103087;23;20019;-77
2023/12/11 00:46:52;;;;;;;30.17;5.28;;;;;;;8.32;100.00;99837.56;6103275;23;20086;-77
2023/12/11 00:49:19;;;;;;;42.03;5.38;;;;;;;8.33;100.00;99839.03;6103454;23;20051;-77
2023/12/11 00:51:48;;;;;;;36.20;5.18;;;;;;;8.33;100.00;99839.03;6102899;23;20465;-77
2023/12/11 00:54:16;;;;;;;45.47;6.60;;;;;;;8.35;100.00;99847.28;6103076;23;20015;-77
2023/12/11 00:56:43;;;;;;;34.00;5.22;;;;;;;8.34;100.00;99837.84;6103584;23;20055;-77
2023/12/11 00:59:09;;;;;;;42.05;5.15;;;;;;;8.35;100.00;99835.94;6103142;23;20019;-77
2023/12/11 01:01:36;;;;;;;33.83;5.05;;;;;;;8.37;100.00;99830.94;6103391;23;20063;-78
2023/12/11 01:04:03;;;;;;;26.45;5.05;;;;;;;8.37;100.00;99825.63;6103271;23;20167;-77
2023/12/11 01:06:30;;;;;;;35.28;5.22;;;;;;;8.37;100.00;99824.91;6102789;23;20074;-77
2023/12/11 01:08:56;;;;;;;33.88;5.95;;;;;;;8.36;100.00;99824.16;6103814;23;20075;-77
2023/12/11 01:11:23;;;;;;;26.60;4.65;;;;;;;8.38;100.00;99821.06;6103324;23;20042;-77
2023/12/11 01:13:49;;;;;;;39.13;5.43;;;;;;;8.38;100.00;99815.75;6103602;23;20011;-78
2023/12/11 01:16:16;;;;;;;27.52;3.83;;;;;;;8.38;100.00;99813.09;6103753;23;20099;-78
2023/12/11 01:18:43;;;;;;;42.33;4.80;;;;;;;8.39;100.00;99807.34;6104555;23;20030;-78
2023/12/11 01:21:10;;;;;;;28.35;4.93;;;;;;;8.41;100.00;99804.97;6103271;23;20014;-78
2023/12/11 01:23:37;;;;;;;27.52;4.82;;;;;;;8.41;100.00;99802.31;6101439;23;20026;-77
2023/12/11 01:26:03;;;;;;;37.85;4.55;;;;;;;8.39;100.00;99794.09;6102498;23;20409;-77
2023/12/11 01:28:30;;;;;;;30.80;5.95;;;;;;;8.40;100.00;99790.22;6101922;23;20011;-77
2023/12/11 01:30:57;;;;;;;33.78;4.20;;;;;;;8.42;100.00;99789.78;6102093;23;20453;-77
2023/12/11 01:33:24;;;;;;;25.67;4.82;;;;;;;8.41;100.00;99786.41;6101425;23;20014;-78
2023/12/11 01:35:50;;;;;;;34.42;5.28;;;;;;;8.44;100.00;99784.78;6076265;23;20027;-77
2023/12/11 01:38:18;;;;;;;28.75;4.68;;;;;;;8.44;100.00;99772.25;6101462;23;20091;-77
2023/12/11 01:40:44;;;;;;;27.65;4.57;;;;;;;8.46;100.00;99779.75;6101686;23;20030;-77
2023/12/11 01:43:11;;;;;;;29.45;4.47;;;;;;;8.48;100.00;99780.78;6101124;23;20070;-77
2023/12/11 01:45:40;;;;;;;32.40;5.28;;;;;;;8.49;100.00;99766.34;6101065;23;20023;-77
2023/12/11 01:48:11;;;;;;;34.13;4.82;;;;;;;8.52;100.00;99764.72;6101640;23;20022;-77
2023/12/11 01:50:39;;;;;;;26.05;3.83;;;;;;;8.54;100.00;99763.09;6101029;23;20019;-77
2023/12/11 01:53:08;;;;;;;34.38;5.35;;;;;;;8.55;100.00;99761.16;6101595;23;20015;-77
2023/12/11 01:55:36;;;;;;;27.90;5.60;;;;;;;8.56;100.00;99762.63;6100892;23;20026;-77
2023/12/11 01:58:04;;;;;;;32.50;5.32;;;;;;;8.57;100.00;99761.44;6101397;23;20037;-77
2023/12/11 02:00:31;;;;;;;34.40;5.32;;;;;;;8.58;100.00;99768.22;6101086;23;20029;-77
2023/12/11 02:02:58;;;;;;;25.42;4.28;;;;;;;8.57;100.00;99737.56;6101798;23;20497;-77
2023/12/11 02:05:25;;;;;;;27.48;3.95;;;;;;;8.56;100.00;99736.09;6101393;23;20023;-78
2023/12/11 02:07:52;;;;;;;28.63;4.57;;;;;;;8.55;100.00;99731.97;6101885;23;20405;-77
2023/12/11 02:10:19;;;;;;;33.92;4.78;;;;;;;8.54;100.00;99733.91;6101295;23;20093;-77
2023/12/11 02:12:46;;;;;;;18.95;3.95;;;;;;;8.53;100.00;99737.75;6101551;23;20517;-77
2023/12/11 02:15:12;;;;;;;36.83;4.55;;;;;;;8.55;100.00;99729.34;6101455;23;20022;-77
2023/12/11 02:17:39;;;;;;;29.65;3.88;;;;;;;8.54;100.00;99728.59;6101263;23;20043;-77
2023/12/11 02:20:06;;;;;;;29.35;4.57;;;;;;;8.54;100.00;99731.25;6102068;23;20025;-77
2023/12/11 02:22:33;;;;;;;30.75;4.65;;;;;;;8.54;100.00;99738.47;6101053;23;20476;-77
2023/12/11 02:25:04;;;;;;;28.42;3.38;;;;;;;8.53;100.00;99727.13;6101653;23;20019;-77
2023/12/11 02:27:31;;;;;;;25.55;3.95;;;;;;;8.55;100.00;99734.63;6100872;23;20075;-77
2023/12/11 02:29:58;;;;;;;26.38;3.97;;;;;;;8.52;100.00;99717.69;6101614;23;20045;-77
2023/12/11 02:32:24;;;;;;;23.77;3.72;;;;;;;8.53;100.00;99721.09;6101182;23;20063;-77
2023/12/11 02:34:52;;;;;;;26.05;4.07;;;;;;;8.52;100.00;99711.66;6101828;23;20393;-77
2023/12/11 02:37:18;;;;;;;25.55;4.60;;;;;;;8.52;100.00;99715.03;6101064;23;20026;-77
2023/12/11 02:39:45;;;;;;;36.53;4.07;;;;;;;8.50;100.00;99709.44;6101414;23;20027;-77
2023/12/11 02:42:12;;;;;;;21.10;4.20;;;;;;;8.49;100.00;99702.69;6101097;23;20361;-77
2023/12/11 02:44:39;;;;;;;29.50;3.55;;;;;;;8.49;100.00;99700.03;6101442;23;20019;-77
2023/12/11 02:47:05;;;;;;;23.48;4.10;;;;;;;8.48;100.00;99690.59;6101860;23;20058;-78
2023/12/11 02:49:32;;;;;;;24.27;3.53;;;;;;;8.48;100.00;99701.22;6101089;23;20023;-77
2023/12/11 02:51:59;;;;;;;36.35;4.43;;;;;;;8.49;100.00;99704.59;6103189;23;20081;-78
2023/12/11 02:54:25;;;;;;;26.63;3.67;;;;;;;8.49;100.00;99696.63;6078624;23;20011;-78
2023/12/11 02:56:52;;;;;;;27.65;3.72;;;;;;;8.48;100.00;99692.53;6104503;23;20019;-78
2023/12/11 02:59:19;;;;;;;23.27;3.70;;;;;;;8.48;100.00;99687.22;6103416;23;20453;-77
2023/12/11 03:01:45;;;;;;;21.45;3.47;;;;;;;8.46;100.00;99678.97;6102583;23;20114;-77
2023/12/11 03:04:12;;;;;;;23.05;4.13;;;;;;;8.42;100.00;99668.53;6077163;23;20094;-78
2023/12/11 03:06:39;;;;;;;21.25;3.95;;;;;;;8.41;100.00;99661.75;6102639;23;20039;-78
2023/12/11 03:09:07;;;;;;;25.98;3.67;;;;;;;8.40;100.00;99660.28;6102899;23;20428;-78
2023/12/11 03:11:34;;;;;;;25.77;3.53;;;;;;;8.40;100.00;99670.19;6101497;23;20011;-78
2023/12/11 03:14:01;;;;;;;25.35;4.18;;;;;;;8.39;100.00;99668.72;6102796;23;20019;-78
2023/12/11 03:16:27;;;;;;;20.17;3.65;;;;;;;8.39;100.00;99668.72;6102234;23;20018;-78
2023/12/11 03:18:54;;;;;;;25.40;4.68;;;;;;;8.37;100.00;99657.81;6102727;23;20854;-78
2023/12/11 03:21:21;;;;;;;28.88;4.13;;;;;;;8.37;100.00;99649.88;6103259;23;20019;-78
2023/12/11 03:23:47;;;;;;;23.13;4.28;;;;;;;8.35;100.00;99650.31;6103351;23;20023;-78
2023/12/11 03:26:14;;;;;;;19.58;3.83;;;;;;;8.33;100.00;99642.81;6102274;23;20019;-78
2023/12/11 03:28:41;;;;;;;22.75;3.92;;;;;;;8.30;100.00;99643.69;6102233;23;20464;-78
2023/12/11 03:31:07;;;;;;;25.80;4.43;;;;;;;8.27;100.00;99647.22;6102397;23;20014;-78
2023/12/11 03:33:34;;;;;;;25.73;4.60;;;;;;;8.26;100.00;99648.41;6101772;23;20094;-78
2023/12/11 03:36:01;;;;;;;25.67;4.30;;;;;;;8.25;100.00;99646.94;6102662;23;20019;-78
2023/12/11 03:38:27;;;;;;;25.83;4.20;;;;;;;8.25;100.00;99646.22;6102403;23;20483;-78
2023/12/11 03:40:54;;;;;;;21.73;3.97;;;;;;;8.24;100.00;99640.16;6102870;23;20500;-77
2023/12/11 03:43:20;;;;;;;28.13;4.22;;;;;;;8.24;100.00;99653.44;6102029;23;20051;-78
2023/12/11 03:45:47;;;;;;;28.40;4.15;;;;;;;8.22;100.00;99639.16;6102888;23;20023;-78
2023/12/11 03:48:14;;;;;;;26.55;4.28;;;;;;;8.21;100.00;99638.41;6102436;23;20011;-78
2023/12/11 03:50:41;;;;;;;23.35;3.83;;;;;;;8.23;100.00;99641.34;6102569;23;20612;-78
2023/12/11 03:53:10;;;;;;;33.17;4.13;;;;;;;8.25;100.00;99652.25;6103094;23;20090;-77
2023/12/11 03:55:37;;;;;;;26.33;4.88;;;;;;;8.25;100.00;99648.84;6102098;23;20059;-78
2023/12/11 03:58:03;;;;;;;20.98;3.85;;;;;;;8.28;100.00;99643.38;6103021;23;20019;-78
2023/12/11 04:00:30;;;;;;;29.73;3.80;;;;;;;8.31;100.00;99641.75;6101617;23;20066;-78
2023/12/11 04:02:57;;;;;;;34.55;4.00;;;;;;;8.34;100.00;99646.94;6102658;23;20449;-77
2023/12/11 04:05:23;;;;;;;30.85;4.68;;;;;;;8.38;100.00;99640.72;6102958;23;20015;-78
2023/12/11 04:07:50;;;;;;;28.50;4.47;;;;;;;8.39;100.00;99628.94;6103481;23;20015;-77
2023/12/11 04:10:17;;;;;;;28.70;4.50;;;;;;;8.40;100.00;99636.41;6101962;23;20025;-78
2023/12/11 04:12:43;;;;;;;25.63;3.88;;;;;;;8.40;100.00;99633.75;6106960;23;20026;-78
2023/12/11 04:15:10;;;;;;;27.95;4.35;;;;;;;8.42;100.00;99638.63;6105808;23;20443;-78
2023/12/11 04:17:37;;;;;;;31.40;3.97;;;;;;;8.42;100.00;99620.06;6080398;23;20021;-78
2023/12/11 04:20:04;;;;;;;33.50;4.10;;;;;;;8.41;100.00;99616.66;6106712;23;20043;-78
2023/12/11 04:22:31;;;;;;;29.67;5.40;;;;;;;8.42;100.00;99628.00;6105217;23;20030;-77
2023/12/11 04:24:58;;;;;;;32.10;4.05;;;;;;;8.42;100.00;99620.06;6105889;23;20019;-78
2023/12/11 04:27:25;;;;;;;35.25;4.28;;;;;;;8.42;100.00;99622.72;6103925;23;20025;-78
2023/12/11 04:29:51;;;;;;;24.52;3.67;;;;;;;8.42;100.00;99628.00;6105813;23;20019;-78
2023/12/11 04:32:18;;;;;;;22.05;3.60;;;;;;;8.41;100.00;99621.97;6054021;23;20023;-77
2023/12/11 04:34:45;;;;;;;20.40;4.07;;;;;;;8.42;100.00;99614.75;6075767;23;20530;-77
2023/12/11 04:37:12;;;;;;;24.63;3.53;;;;;;;8.41;100.00;99608.72;6101804;23;20015;-77
2023/12/11 04:39:39;;;;;;;27.95;4.75;;;;;;;8.41;100.00;99607.97;6075526;23;20432;-77
2023/12/11 04:42:06;;;;;;;27.02;4.03;;;;;;;8.41;100.00;99621.25;6101690;23;20107;-77
2023/12/11 04:44:32;;;;;;;32.75;4.10;;;;;;;8.40;100.00;99620.50;6075625;23;20066;-77
2023/12/11 04:46:59;;;;;;;25.02;3.90;;;;;;;8.41;100.00;99614.00;6102274;23;20019;-77
2023/12/11 04:49:25;;;;;;;25.40;4.65;;;;;;;8.43;100.00;99603.69;6075552;23;20511;-77
2023/12/11 04:51:52;;;;;;;25.67;4.40;;;;;;;8.43;100.00;99603.69;6101444;23;20026;-77
2023/12/11 04:54:19;;;;;;;27.38;4.47;;;;;;;8.44;100.00;99615.78;6075848;23;20079;-77
2023/12/11 04:56:46;;;;;;;34.40;4.22;;;;;;;8.43;100.00;99611.66;6102099;23;20015;-77
2023/12/11 04:59:13;;;;;;;34.50;5.22;;;;;;;8.43;100.00;99609.00;6075768;23;20030;-77
2023/12/11 05:01:39;;;;;;;30.42;4.80;;;;;;;8.43;100.00;99600.31;6101715;23;20019;-77
2023/12/11 05:04:06;;;;;;;31.17;4.60;;;;;;;8.43;100.00;99589.69;6102112;23;20021;-77
2023/12/11 05:06:33;;;;;;;30.13;5.38;;;;;;;8.42;100.00;99594.25;6076093;23;20022;-77
2023/12/11 05:09:00;;;;;;;31.17;4.30;;;;;;;8.43;100.00;99589.69;6102579;23;20031;-77
2023/12/11 05:11:26;;;;;;;31.38;5.10;;;;;;;8.39;100.00;99579.28;6103203;23;20058;-78
2023/12/11 05:13:53;;;;;;;31.02;5.03;;;;;;;8.38;100.00;99572.50;6105639;23;20560;-78
2023/12/11 05:16:20;;;;;;;31.92;4.15;;;;;;;8.39;100.00;99573.97;6105818;23;20453;-78
2023/12/11 05:18:49;;;;;;;28.15;4.55;;;;;;;8.38;100.00;99583.13;6105962;23;20014;-78
2023/12/11 05:21:16;;;;;;;28.90;3.47;;;;;;;8.39;100.00;99566.03;6105148;23;20027;-78
2023/12/11 05:23:42;;;;;;;25.73;4.72;;;;;;;8.39;100.00;99566.03;6105896;23;20019;-78
2023/12/11 05:26:09;;;;;;;29.75;4.30;;;;;;;8.41;100.00;99562.91;6106278;23;20092;-78
2023/12/11 05:28:36;;;;;;;30.90;4.22;;;;;;;8.42;100.00;99554.50;6106076;23;20015;-78
2023/12/11 05:31:03;;;;;;;32.45;5.47;;;;;;;8.44;100.00;99560.06;6105590;23;20019;-78
2023/12/11 05:33:29;;;;;;;31.75;4.20;;;;;;;8.46;100.00;99565.66;6054998;23;20480;-78
2023/12/11 05:35:56;;;;;;;28.90;4.85;;;;;;;8.47;100.00;99559.16;6104525;23;20021;-78
2023/12/11 05:38:23;;;;;;;27.90;4.15;;;;;;;8.49;100.00;99559.44;6104215;23;20816;-78
2023/12/11 05:40:50;;;;;;;31.30;3.92;;;;;;;8.49;100.00;99564.75;6079393;23;20501;-78
2023/12/11 05:43:16;;;;;;;31.70;4.88;;;;;;;8.50;100.00;99560.19;6105121;23;20015;-78
2023/12/11 05:45:43;;;;;;;31.30;4.60;;;;;;;8.49;100.00;99559.44;6104141;23;20103;-77
2023/12/11 05:48:09;;;;;;;26.88;4.10;;;;;;;8.50;100.00;99573.44;6102012;23;20078;-77
2023/12/11 05:50:36;;;;;;;30.30;4.05;;;;;;;8.49;100.00;99564.75;6102358;23;20087;-78
2023/12/11 05:53:06;;;;;;;18.05;3.45;;;;;;;8.48;100.00;99550.03;6076710;23;20477;-78
2023/12/11 05:55:33;;;;;;;31.45;4.00;;;;;;;8.49;100.00;99556.06;6101358;23;20015;-77
2023/12/11 05:57:59;;;;;;;24.35;3.92;;;;;;;8.48;100.00;99557.25;6101511;23;20022;-77
2023/12/11 06:00:26;;;;;;;23.00;4.35;;;;;;;8.46;100.00;99567.56;6101079;23;20082;-77
2023/12/11 06:02:53;;;;;;;23.70;3.17;;;;;;;8.47;100.00;99564.47;6101655;23;20170;-78
2023/12/11 06:05:19;;;;;;;26.20;3.92;;;;;;;8.47;100.00;99555.78;6101518;23;20025;-77
2023/12/11 06:07:46;;;;;;;22.75;3.85;;;;;;;8.45;100.00;99542.97;6101821;23;20026;-77
2023/12/11 06:10:13;;;;;;;22.02;4.03;;;;;;;8.47;100.00;99550.47;6101283;23;20079;-77
2023/12/11 06:12:40;;;;;;;27.15;3.50;;;;;;;8.46;100.00;99546.34;6101179;23;20039;-77
2023/12/11 06:15:07;;;;;;;25.98;3.75;;;;;;;8.47;100.00;99539.88;6076201;23;20543;-77
2023/12/11 06:17:34;;;;;;;18.73;3.40;;;;;;;8.46;100.00;99541.78;6075790;23;20508;-77
2023/12/11 06:20:03;;;;;;;17.50;3.70;;;;;;;8.45;100.00;99548.28;6102272;23;20023;-78
2023/12/11 06:22:30;;;;;;;28.70;3.65;;;;;;;8.45;100.00;99542.25;6103084;23;20386;-77
2023/12/11 06:24:57;;;;;;;26.75;2.67;;;;;;;8.43;100.00;99552.56;6104267;23;20019;-77
2023/12/11 06:27:25;;;;;;;29.15;3.60;;;;;;;8.42;100.00;99540.50;6104217;23;20089;-77
2023/12/11 06:29:52;;;;;;;24.52;3.35;;;;;;;8.37;100.00;99541.88;6105512;23;20003;-77
2023/12/11 06:32:18;;;;;;;22.02;3.40;;;;;;;8.37;100.00;99549.84;6105180;23;20469;-77
2023/12/11 06:34:45;;;;;;;26.23;4.45;;;;;;;8.36;100.00;99548.38;6104403;23;20022;-77
2023/12/11 06:37:12;;;;;;;29.67;3.92;;;;;;;8.35;100.00;99552.94;6105030;23;20022;-77
2023/12/11 06:39:39;;;;;;;16.40;2.70;;;;;;;8.34;100.00;99535.56;6105060;23;20533;-77
2023/12/11 06:42:06;;;;;;;18.02;3.42;;;;;;;8.34;100.00;99532.91;6107082;23;20098;-78
2023/12/11 06:44:32;;;;;;;25.77;4.10;;;;;;;8.35;100.00;99538.94;6111283;23;20103;-78
2023/12/11 06:46:59;;;;;;;17.83;2.55;;;;;;;8.34;100.00;99535.56;6108242;23;20021;-78
2023/12/11 06:49:25;;;;;;;27.10;3.45;;;;;;;8.35;100.00;99536.28;6075896;23;20023;-78
2023/12/11 06:51:53;;;;;;;12.27;3.15;;;;;;;8.35;100.00;99531.72;6102013;23;20021;-77
2023/12/11 06:54:19;;;;;;;15.93;2.72;;;;;;;8.34;100.00;99540.84;6077754;23;20547;-76
2023/12/11 06:56:47;;;;;;;17.13;3.00;;;;;;;8.37;100.00;99541.88;6101694;23;20021;-77
2023/12/11 06:59:13;;;;;;;16.20;2.67;;;;;;;8.34;100.00;99551.47;6102836;23;20099;-77
2023/12/11 07:01:40;;;;;;;13.88;2.60;;;;;;;8.32;100.00;99551.19;6102878;23;20019;-78
2023/12/11 07:04:07;;;;;;;18.38;3.05;;;;;;;8.32;100.00;99551.19;6105093;23;20082;-78
2023/12/11 07:06:34;;;;;;;9.93;2.05;;;;;;;8.29;100.00;99552.06;6108589;23;20014;-78
2023/12/11 07:09:02;;;;;;;15.30;2.67;;;;;;;8.30;100.00;99558.09;6104308;23;20019;-77
2023/12/11 07:11:28;;;;;;;10.02;1.98;;;;;;;8.29;100.00;99541.44;6105723;23;20011;-79
2023/12/11 07:13:55;;;;;;;12.70;2.40;;;;;;;8.29;100.00;99546.75;6107481;23;20082;-78
2023/12/11 07:16:25;;;;;;;13.23;2.28;;;;;;;8.30;100.00;99550.13;6112400;23;20019;-79
2023/12/11 07:18:52;;;;;;;10.15;2.47;;;;;;;8.29;100.00;99554.72;6085622;23;20463;-78
2023/12/11 07:21:19;;;;;;;15.13;2.42;;;;;;;8.30;100.00;99555.44;6111129;23;20048;-78
2023/12/11 07:23:48;;;;;;;9.07;2.10;;;;;;;8.30;100.00;99552.78;6108921;23;20047;-78
2023/12/11 07:26:15;;;;;;;12.30;2.70;;;;;;;8.31;100.00;99546.31;6083772;23;20390;-78
2023/12/11 07:28:42;;;;;;;9.45;2.22;;;;;;;8.30;100.00;99556.19;6108971;23;20011;-78
2023/12/11 07:31:08;;;;;;;17.08;2.65;;;;;;;8.30;100.00;99572.09;6109585;23;20063;-79
2023/12/11 07:33:36;;;;;;;18.60;2.65;;;;;;;8.29;100.00;99575.91;6083118;23;20015;-79
2023/12/11 07:36:04;;;;;;;14.18;3.05;;;;;;;8.32;100.00;99571.63;6085608;23;20019;-79
2023/12/11 07:38:31;;;;;;;10.45;2.65;;;;;;;8.32;100.00;99584.91;6110596;23;20007;-78
2023/12/11 07:40:58;;;;;;;10.80;2.05;;;;;;;8.31;100.00;99589.47;6106670;23;20025;-79
2023/12/11 07:43:25;;;;;;;8.00;1.80;;;;;;;8.31;100.00;99604.63;6113042;23;20011;-80
2023/12/11 07:45:52;;;;;;;12.43;2.30;;;;;;;8.32;100.00;99629.97;6089373;23;20019;-79
2023/12/11 07:48:19;;;;;;;7.38;1.73;;;;;;;8.34;100.00;99585.94;6118363;23;20010;-80
2023/12/11 07:50:46;;;;;;;7.30;1.90;;;;;;;8.35;100.00;99610.53;6091806;23;20062;-80
2023/12/11 07:53:13;;;;;;;9.15;2.05;;;;;;;8.35;100.00;99626.44;6089018;23;20022;-79
2023/12/11 07:55:40;;;;;;;3.15;1.20;;;;;;;8.35;100.00;99626.44;6086301;23;20071;-77
2023/12/11 07:58:06;;;;;;;5.72;1.80;;;;;;;8.34;100.00;99630.28;6111972;23;20022;-79
2023/12/11 08:00:33;;;;;;;8.65;2.08;;;;;;;8.33;100.00;99640.16;6061421;23;20030;-79
2023/12/11 08:03:00;;;;;;;5.90;1.90;;;;;;;8.35;100.00;99637.06;6087284;23;20018;-79
2023/12/11 08:05:27;;;;;;;13.15;2.22;;;;;;;8.35;100.00;99652.97;6111919;23;20022;-79
2023/12/11 08:07:54;;;;;;;9.75;2.00;;;;;;;8.38;100.00;99661.94;6111407;23;20488;-78
2023/12/11 08:10:20;;;;;;;6.93;1.70;;;;;;;8.37;100.00;99666.50;6106989;23;20023;-77
2023/12/11 08:12:51;;;;;;;11.20;1.83;;;;;;;8.35;100.00;99666.97;6079289;23;20019;-77
2023/12/11 08:15:18;;;;;;;2.80;1.63;;;;;;;8.35;100.00;99685.53;6102752;23;20021;-77
2023/12/11 08:17:45;;;;;;;11.15;1.95;;;;;;;8.38;100.00;99697.16;6103345;23;20023;-76
2023/12/11 08:20:16;;;;;;;8.85;2.15;;;;;;;8.38;100.00;99704.38;6102085;23;20018;-77
2023/12/11 08:22:44;;;;;;;8.73;2.22;;;;;;;8.37;100.00;99726.78;6102344;23;20015;-77
2023/12/11 08:25:11;;;;;;;8.00;2.20;;;;;;;8.36;100.00;99718.09;6102407;23;20019;-77
2023/12/11 08:27:39;;;;;;;11.60;2.08;;;;;;;8.37;100.00;99716.91;6102172;23;20019;-77
2023/12/11 08:30:06;;;;;;;6.50;2.28;;;;;;;8.38;100.00;99741.50;6104534;23;20026;-80
2023/12/11 08:32:36;;;;;;;8.75;1.83;;;;;;;8.40;100.00;99747.81;6105361;23;20041;-79
2023/12/11 08:35:04;;;;;;;8.30;2.15;;;;;;;8.40;100.00;99757.69;6108122;23;20021;-78
2023/12/11 08:37:31;;;;;;;8.73;2.42;;;;;;;8.40;100.00;99761.06;6104698;23;20054;-78
2023/12/11 08:39:58;;;;;;;11.27;3.03;;;;;;;8.40;100.00;99766.38;6106607;23;20025;-78
2023/12/11 08:42:25;;;;;;;10.05;2.22;;;;;;;8.42;100.00;99766.66;6107381;23;20103;-80
2023/12/11 08:44:52;;;;;;;7.15;2.00;;;;;;;8.43;100.00;99780.66;6107407;23;20019;-78
2023/12/11 08:47:18;;;;;;;6.68;2.15;;;;;;;8.45;100.00;99786.25;6108567;23;20025;-79
2023/12/11 08:49:45;;;;;;;10.05;1.88;;;;;;;8.46;100.00;99790.38;6108468;23;20098;-79
2023/12/11 08:52:29;;;;;;;15.90;2.20;;;;;;;8.47;100.00;99776.66;6080681;23;20411;-78
2023/12/11 08:54:55;;;;;;;6.88;2.10;;;;;;;8.50;100.00;99812.91;6105476;23;20019;-78
2023/12/11 08:57:22;;;;;;;7.63;2.33;;;;;;;8.49;100.00;99829.25;6076674;23;20018;-77
2023/12/11 08:59:49;;;;;;;6.78;1.63;;;;;;;8.48;100.00;99820.56;6076625;23;20026;-77
2023/12/11 09:02:15;;;;;;;15.57;2.35;;;;;;;8.49;100.00;99839.88;6076234;23;20079;-77
2023/12/11 09:04:42;;;;;;;9.77;2.42;;;;;;;8.48;100.00;99841.78;6076445;23;20015;-77
2023/12/11 09:07:09;;;;;;;14.73;2.55;;;;;;;8.51;100.00;99837.50;6102384;23;20079;-78
2023/12/11 09:09:37;;;;;;;14.13;3.03;;;;;;;8.52;100.00;99852.25;6077294;23;20110;-77
2023/12/11 09:12:05;;;;;;;8.50;2.47;;;;;;;8.52;100.00;99847.69;6077468;23;20077;-76
2023/12/11 09:14:38;;;;;;;13.80;2.22;;;;;;;8.53;100.00;99870.38;6102955;23;20046;-76
2023/12/11 09:17:05;;;;;;;7.10;1.80;;;;;;;8.54;100.00;99882.44;6102557;23;20061;-76
2023/12/11 09:19:32;;;;;;;12.75;2.97;;;;;;;8.56;100.00;99868.75;6101758;23;20039;-76
2023/12/11 09:22:14;;;;;;;10.43;2.47;;;;;;;8.57;100.00;99886.88;6101799;23;20102;-76
2023/12/11 09:24:41;;;;;;;10.55;2.38;;;;;;;8.59;100.00;99876.56;6076240;23;20552;-77
2023/12/11 09:27:08;;;;;;;13.93;3.17;;;;;;;8.62;100.00;99893.50;6102254;23;20019;-75
2023/12/11 09:29:35;;;;;;;11.85;2.67;;;;;;;8.65;100.00;99898.66;6101516;23;20488;-76
2023/12/11 09:32:02;;;;;;;16.40;2.75;;;;;;;8.68;100.00;99895.09;6102391;23;20438;-75
2023/12/11 09:34:29;;;;;;;7.97;2.70;;;;;;;8.71;100.00;99904.09;6101030;23;20015;-75
2023/12/11 09:36:57;;;;;;;15.35;2.42;;;;;;;8.75;100.00;99928.56;6101945;23;20055;-76
2023/12/11 09:39:24;;;;;;;17.08;2.85;;;;;;;8.77;100.00;99938.72;6101115;23;20038;-77
2023/12/11 09:41:52;;;;;;;13.43;2.95;;;;;;;8.77;100.00;99934.16;6102561;23;20798;-76
2023/12/11 09:44:19;;;;;;;14.30;2.65;;;;;;;8.77;100.00;99942.13;6101356;23;20070;-76
2023/12/11 09:47:04;;;;;;;10.57;2.58;;;;;;;8.78;100.00;99953.47;6101751;23;20122;-76
2023/12/11 09:49:32;;;;;;;11.88;2.33;;;;;;;8.78;100.00;99962.16;6101298;23;20046;-76
2023/12/11 09:52:00;;;;;;;12.60;2.78;;;;;;;8.81;100.00;99957.88;6101652;23;20533;-76
2023/12/11 09:54:27;;;;;;;18.60;2.72;;;;;;;8.82;100.00;99978.66;6101396;23;20025;-76
2023/12/11 09:56:54;;;;;;;13.38;3.30;;;;;;;8.80;100.00;99990.88;6103369;23;20426;-78
2023/12/11 09:59:22;;;;;;;12.88;2.72;;;;;;;8.78;100.00;99996.66;6053830;23;20023;-79
2023/12/11 10:01:49;;;;;;;12.75;2.85;;;;;;;8.75;100.00;99989.59;6105477;23;20019;-79
2023/12/11 10:04:16;;;;;;;15.38;2.80;;;;;;;8.72;100.00;100009.06;6104714;23;20074;-77
2023/12/11 10:06:43;;;;;;;17.95;3.03;;;;;;;8.70;100.00;100008.75;6102106;23;20026;-78
2023/12/11 10:09:29;;;;;;;12.70;3.05;;;;;;;8.69;100.00;100031.16;6106121;23;20018;-76
2023/12/11 10:12:00;;;;;;;11.68;3.08;;;;;;;8.69;100.00;100025.84;6105175;23;20015;-77
2023/12/11 10:14:28;;;;;;;15.30;3.20;;;;;;;8.72;100.00;100040.16;6078463;23;20023;-78
2023/12/11 10:16:55;;;;;;;10.98;2.80;;;;;;;8.75;100.00;100037.34;6109515;23;20023;-82
2023/12/11 10:19:40;;;;;;;9.68;2.63;;;;;;;8.75;100.00;100045.31;6084351;23;20015;-78
2023/12/11 10:22:07;;;;;;;19.30;3.33;;;;;;;8.78;100.00;100055.06;6081734;23;20043;-79
2023/12/11 10:24:42;;;;;;;17.80;3.70;;;;;;;8.84;100.00;100058.56;6077016;23;20353;-76
2023/12/11 10:27:08;;;;;;;18.00;2.78;;;;;;;8.86;100.00;100063.44;6102478;23;20115;-77
2023/12/11 10:29:36;;;;;;;10.13;2.80;;;;;;;8.88;100.00;100075.06;6103377;23;20029;-75
2023/12/11 10:32:03;;;;;;;11.80;2.65;;;;;;;8.90;100.00;100067.41;6102924;23;20509;-76
2023/12/11 10:34:42;;;;;;;9.18;2.33;;;;;;;8.91;100.00;100084.81;6104411;23;20107;-77
2023/12/11 10:37:15;;;;;;;15.13;2.42;;;;;;;8.91;100.00;100076.84;6104590;23;20377;-78
2023/12/11 10:39:52;;;;;;;19.63;3.17;;;;;;;8.94;100.00;100099.84;6109940;23;20046;-80
2023/12/11 10:42:19;;;;;;;14.20;2.33;;;;;;;8.92;100.00;100083.63;6107718;23;20050;-81
2023/12/11 10:44:46;;;;;;;13.73;2.80;;;;;;;8.90;100.00;100088.66;6108825;23;20772;-84
2023/12/11 10:47:20;;;;;;;20.80;2.45;;;;;;;8.88;100.00;100092.91;6084172;23;20019;-82
2023/12/11 10:49:47;;;;;;;11.20;2.97;;;;;;;8.88;100.00;100101.63;6081484;23;20025;-77
2023/12/11 10:52:13;;;;;;;11.18;2.05;;;;;;;8.90;100.00;100098.53;6105375;23;20022;-80
2023/12/11 10:54:41;;;;;;;17.40;2.60;;;;;;;8.91;100.00;100108.69;6107537;23;20018;-78
2023/12/11 10:57:16;;;;;;;6.65;1.67;;;;;;;8.90;100.00;100103.84;6105711;23;20434;-77
2023/12/11 10:59:44;;;;;;;13.93;2.42;;;;;;;8.92;100.00;100106.78;6103186;23;20050;-77
2023/12/11 11:02:17;;;;;;;11.25;2.20;;;;;;;8.94;100.00;100113.13;6102619;23;20022;-75
2023/12/11 11:04:45;;;;;;;13.73;2.60;;;;;;;8.95;100.00;100111.94;6101235;23;20425;-76
2023/12/11 11:07:35;;;;;;;17.05;2.50;;;;;;;8.96;100.00;100112.69;6100931;23;20051;-76
2023/12/11 11:10:10;;;;;;;14.63;2.35;;;;;;;8.92;100.00;100122.72;6101050;23;20417;-76
2023/12/11 11:12:51;;;;;;;13.50;2.38;;;;;;;8.89;100.00;100119.03;6101095;23;20471;-77
2023/12/11 11:15:22;;;;;;;9.65;2.95;;;;;;;8.90;100.00;100120.50;6100677;23;20019;-76
2023/12/11 11:18:03;;;;;;;6.30;2.05;;;;;;;8.88;100.00;100132.75;6102225;23;20098;-75
2023/12/11 11:20:38;;;;;;;11.80;3.00;;;;;;;8.89;100.00;100139.53;6100282;23;20022;-75
2023/12/11 11:23:17;;;;;;;12.20;2.15;;;;;;;8.90;100.00;100136.44;6100106;23;20019;-78
2023/12/11 11:25:51;;;;;;;11.88;2.10;;;;;;;8.91;100.00;100148.53;6101565;23;20082;-77